sensor_id;sensor_type;location;lat;lon;timestamp;temperature;humidity
75296;DHT22;64623;44.738;37.804;2023-12-22T00:00:09;-1.13;118.99
75296;DHT22;64623;44.738;37.804;2023-12-22T00:01:12;-1.12;118.99
75296;DHT22;64623;44.738;37.804;2023-12-22T00:02:18;-1.00;118.99
75296;DHT22;64623;44.738;37.804;2023-12-22T00:03:21;-1.03;118.99
75296;DHT22;64623;44.738;37.804;2023-12-22T00:04:24;-1.10;118.99
75296;DHT22;64623;44.738;37.804;2023-12-22T00:05:27;-1.03;118.99
75296;DHT22;64623;44.738;37.804;2023-12-22T00:06:30;-1.10;118.99
75296;DHT22;64623;44.738;37.804;2023-12-22T00:07:35;-1.06;118.99
75296;DHT22;64623;44.738;37.804;2023-12-22T00:08:38;-0.98;118.99
75296;DHT22;64623;44.738;37.804;2023-12-22T00:09:41;-1.03;118.99
75296;DHT22;64623;44.738;37.804;2023-12-22T00:10:44;-1.04;118.99
75296;DHT22;64623;44.738;37.804;2023-12-22T00:11:47;-1.06;118.99
75296;DHT22;64623;44.738;37.804;2023-12-22T00:12:51;-1.17;118.99
75296;DHT22;64623;44.738;37.804;2023-12-22T00:13:54;-1.19;118.99
75296;DHT22;64623;44.738;37.804;2023-12-22T00:14:57;-1.19;118.99
75296;DHT22;64623;44.738;37.804;2023-12-22T00:16:00;-1.20;118.99
75296;DHT22;64623;44.738;37.804;2023-12-22T00:17:03;-1.14;118.99
75296;DHT22;64623;44.738;37.804;2023-12-22T00:18:06;-1.17;118.99
75296;DHT22;64623;44.738;37.804;2023-12-22T00:19:09;-1.15;118.99
75296;DHT22;64623;44.738;37.804;2023-12-22T00:20:12;-1.16;118.99
75296;DHT22;64623;44.738;37.804;2023-12-22T00:21:16;-1.14;118.99
75296;DHT22;64623;44.738;37.804;2023-12-22T00:22:19;-1.14;118.99
75296;DHT22;64623;44.738;37.804;2023-12-22T00:23:22;-1.10;118.99
75296;DHT22;64623;44.738;37.804;2023-12-22T00:24:25;-1.06;118.99
75296;DHT22;64623;44.738;37.804;2023-12-22T00:25:28;-1.17;118.99
75296;DHT22;64623;44.738;37.804;2023-12-22T00:26:31;-1.21;118.99
75296;DHT22;64623;44.738;37.804;2023-12-22T00:27:34;-1.20;118.99
75296;DHT22;64623;44.738;37.804;2023-12-22T00:28:37;-1.16;118.99
75296;DHT22;64623;44.738;37.804;2023-12-22T00:29:39;-1.23;118.99
75296;DHT22;64623;44.738;37.804;2023-12-22T00:30:42;-1.24;118.99
75296;DHT22;64623;44.738;37.804;2023-12-22T00:31:45;-1.20;118.99
75296;DHT22;64623;44.738;37.804;2023-12-22T00:32:48;-1.24;118.99
75296;DHT22;64623;44.738;37.804;2023-12-22T00:33:51;-1.18;118.99
75296;DHT22;64623;44.738;37.804;2023-12-22T00:34:54;-1.24;118.99
75296;DHT22;64623;44.738;37.804;2023-12-22T00:35:59;-1.27;118.99
75296;DHT22;64623;44.738;37.804;2023-12-22T00:37:02;-1.21;118.99
75296;DHT22;64623;44.738;37.804;2023-12-22T00:38:07;-1.19;118.99
75296;DHT22;64623;44.738;37.804;2023-12-22T00:39:10;-1.20;118.99
75296;DHT22;64623;44.738;37.804;2023-12-22T00:40:14;-1.27;118.99
75296;DHT22;64623;44.738;37.804;2023-12-22T00:41:17;-1.27;118.99
75296;DHT22;64623;44.738;37.804;2023-12-22T00:42:19;-1.25;118.99
75296;DHT22;64623;44.738;37.804;2023-12-22T00:43:22;-1.18;118.99
75296;DHT22;64623;44.738;37.804;2023-12-22T00:44:25;-1.21;118.99
75296;DHT22;64623;44.738;37.804;2023-12-22T00:45:30;-1.25;118.99
75296;DHT22;64623;44.738;37.804;2023-12-22T00:46:32;-1.26;118.99
75296;DHT22;64623;44.738;37.804;2023-12-22T00:47:35;-1.20;118.99
75296;DHT22;64623;44.738;37.804;2023-12-22T00:48:38;-1.21;118.99
75296;DHT22;64623;44.738;37.804;2023-12-22T00:49:41;-1.25;118.99
75296;DHT22;64623;44.738;37.804;2023-12-22T00:50:44;-1.23;118.99
75296;DHT22;64623;44.738;37.804;2023-12-22T00:51:47;-1.19;118.99
75296;DHT22;64623;44.738;37.804;2023-12-22T00:52:50;-1.19;118.99
75296;DHT22;64623;44.738;37.804;2023-12-22T00:53:53;-1.21;118.99
75296;DHT22;64623;44.738;37.804;2023-12-22T00:54:56;-1.24;118.99
75296;DHT22;64623;44.738;37.804;2023-12-22T00:56:00;-1.29;118.99
75296;DHT22;64623;44.738;37.804;2023-12-22T00:57:05;-1.28;118.99
75296;DHT22;64623;44.738;37.804;2023-12-22T00:58:08;-1.26;118.99
75296;DHT22;64623;44.738;37.804;2023-12-22T00:59:11;-1.33;118.99
75296;DHT22;64623;44.738;37.804;2023-12-22T01:00:14;-1.35;118.99
75296;DHT22;64623;44.738;37.804;2023-12-22T01:01:17;-1.31;118.99
75296;DHT22;64623;44.738;37.804;2023-12-22T01:02:20;-1.33;118.99
75296;DHT22;64623;44.738;37.804;2023-12-22T01:03:23;-1.41;118.99
75296;DHT22;64623;44.738;37.804;2023-12-22T01:04:26;-1.43;118.99
75296;DHT22;64623;44.738;37.804;2023-12-22T01:05:29;-1.38;118.99
75296;DHT22;64623;44.738;37.804;2023-12-22T01:06:32;-1.44;118.99
75296;DHT22;64623;44.738;37.804;2023-12-22T01:07:39;-1.45;118.99
75296;DHT22;64623;44.738;37.804;2023-12-22T01:08:42;-1.53;118.99
75296;DHT22;64623;44.738;37.804;2023-12-22T01:09:45;-1.47;118.99
75296;DHT22;64623;44.738;37.804;2023-12-22T01:10:47;-1.53;118.99
75296;DHT22;64623;44.738;37.804;2023-12-22T01:11:50;-1.57;118.99
75296;DHT22;64623;44.738;37.804;2023-12-22T01:12:53;-1.58;118.99
75296;DHT22;64623;44.738;37.804;2023-12-22T01:13:56;-1.54;118.99
75296;DHT22;64623;44.738;37.804;2023-12-22T01:14:59;-1.56;118.99
75296;DHT22;64623;44.738;37.804;2023-12-22T01:16:02;-1.54;118.99
75296;DHT22;64623;44.738;37.804;2023-12-22T01:17:05;-1.57;118.99
75296;DHT22;64623;44.738;37.804;2023-12-22T01:18:08;-1.60;118.99
75296;DHT22;64623;44.738;37.804;2023-12-22T01:19:11;-1.56;118.99
75296;DHT22;64623;44.738;37.804;2023-12-22T01:20:14;-1.57;118.99
75296;DHT22;64623;44.738;37.804;2023-12-22T01:21:17;-1.56;118.99
75296;DHT22;64623;44.738;37.804;2023-12-22T01:22:20;-1.56;118.99
75296;DHT22;64623;44.738;37.804;2023-12-22T01:23:25;-1.55;118.99
75296;DHT22;64623;44.738;37.804;2023-12-22T01:24:28;-1.60;118.99
75296;DHT22;64623;44.738;37.804;2023-12-22T01:25:31;-1.59;118.99
75296;DHT22;64623;44.738;37.804;2023-12-22T01:26:34;-1.61;118.99
75296;DHT22;64623;44.738;37.804;2023-12-22T01:27:37;-1.69;118.99
75296;DHT22;64623;44.738;37.804;2023-12-22T01:28:40;-1.76;118.99
75296;DHT22;64623;44.738;37.804;2023-12-22T01:29:43;-1.75;118.99
75296;DHT22;64623;44.738;37.804;2023-12-22T01:30:46;-1.70;118.99
75296;DHT22;64623;44.738;37.804;2023-12-22T01:31:50;-1.69;118.99
75296;DHT22;64623;44.738;37.804;2023-12-22T01:32:53;-1.68;118.99
75296;DHT22;64623;44.738;37.804;2023-12-22T01:33:55;-1.70;118.99
75296;DHT22;64623;44.738;37.804;2023-12-22T01:35:00;-1.70;118.99
75296;DHT22;64623;44.738;37.804;2023-12-22T01:36:06;-1.77;118.99
75296;DHT22;64623;44.738;37.804;2023-12-22T01:37:10;-1.78;118.99
75296;DHT22;64623;44.738;37.804;2023-12-22T01:38:13;-1.77;118.99
75296;DHT22;64623;44.738;37.804;2023-12-22T01:39:16;-1.78;118.99
75296;DHT22;64623;44.738;37.804;2023-12-22T01:40:19;-1.84;118.99
75296;DHT22;64623;44.738;37.804;2023-12-22T01:41:22;-1.88;118.99
75296;DHT22;64623;44.738;37.804;2023-12-22T01:42:25;-1.89;118.99
75296;DHT22;64623;44.738;37.804;2023-12-22T01:43:28;-1.83;118.99
75296;DHT22;64623;44.738;37.804;2023-12-22T01:44:31;-1.84;118.99
75296;DHT22;64623;44.738;37.804;2023-12-22T01:45:34;-1.83;118.99
75296;DHT22;64623;44.738;37.804;2023-12-22T01:46:37;-1.82;118.99
75296;DHT22;64623;44.738;37.804;2023-12-22T01:47:42;-1.89;118.99
75296;DHT22;64623;44.738;37.804;2023-12-22T01:48:45;-1.90;118.99
75296;DHT22;64623;44.738;37.804;2023-12-22T01:49:48;-1.83;118.99
75296;DHT22;64623;44.738;37.804;2023-12-22T01:50:52;-1.77;118.99
75296;DHT22;64623;44.738;37.804;2023-12-22T01:51:55;-1.85;118.99
75296;DHT22;64623;44.738;37.804;2023-12-22T01:52:58;-1.80;118.99
75296;DHT22;64623;44.738;37.804;2023-12-22T01:54:02;-1.76;118.99
75296;DHT22;64623;44.738;37.804;2023-12-22T01:55:06;-1.83;118.99
75296;DHT22;64623;44.738;37.804;2023-12-22T01:56:09;-1.84;118.99
75296;DHT22;64623;44.738;37.804;2023-12-22T01:57:14;-1.79;118.99
75296;DHT22;64623;44.738;37.804;2023-12-22T01:58:20;-1.79;118.99
75296;DHT22;64623;44.738;37.804;2023-12-22T01:59:25;-1.78;118.99
75296;DHT22;64623;44.738;37.804;2023-12-22T02:00:28;-1.75;118.99
75296;DHT22;64623;44.738;37.804;2023-12-22T02:01:31;-1.79;118.99
75296;DHT22;64623;44.738;37.804;2023-12-22T02:02:35;-1.77;118.99
75296;DHT22;64623;44.738;37.804;2023-12-22T02:03:38;-1.80;118.99
75296;DHT22;64623;44.738;37.804;2023-12-22T02:04:41;-1.85;118.99
75296;DHT22;64623;44.738;37.804;2023-12-22T02:05:45;-1.86;118.99
75296;DHT22;64623;44.738;37.804;2023-12-22T02:06:48;-1.84;118.99
75296;DHT22;64623;44.738;37.804;2023-12-22T02:07:51;-1.83;118.99
75296;DHT22;64623;44.738;37.804;2023-12-22T02:08:55;-1.79;118.99
75296;DHT22;64623;44.738;37.804;2023-12-22T02:09:58;-1.86;118.99
75296;DHT22;64623;44.738;37.804;2023-12-22T02:11:01;-1.86;118.99
75296;DHT22;64623;44.738;37.804;2023-12-22T02:12:05;-1.90;118.99
75296;DHT22;64623;44.738;37.804;2023-12-22T02:13:08;-1.90;118.99
75296;DHT22;64623;44.738;37.804;2023-12-22T02:14:12;-1.90;118.99
75296;DHT22;64623;44.738;37.804;2023-12-22T02:15:15;-1.92;118.99
75296;DHT22;64623;44.738;37.804;2023-12-22T02:16:45;-1.93;118.99
75296;DHT22;64623;44.738;37.804;2023-12-22T02:18:10;-1.97;118.99
75296;DHT22;64623;44.738;37.804;2023-12-22T02:19:44;-1.98;118.99
75296;DHT22;64623;44.738;37.804;2023-12-22T02:20:48;-2.01;118.99
75296;DHT22;64623;44.738;37.804;2023-12-22T02:23:07;-2.03;118.99
75296;DHT22;64623;44.738;37.804;2023-12-22T02:24:10;-2.03;118.99
75296;DHT22;64623;44.738;37.804;2023-12-22T02:25:13;-2.05;118.99
75296;DHT22;64623;44.738;37.804;2023-12-22T02:26:28;-2.05;118.99
75296;DHT22;64623;44.738;37.804;2023-12-22T02:27:48;-2.03;118.99
75296;DHT22;64623;44.738;37.804;2023-12-22T02:28:52;-2.02;118.99
75296;DHT22;64623;44.738;37.804;2023-12-22T02:30:26;-2.00;118.99
75296;DHT22;64623;44.738;37.804;2023-12-22T02:31:38;-2.05;118.99
75296;DHT22;64623;44.738;37.804;2023-12-22T02:32:49;-2.06;118.99
75296;DHT22;64623;44.738;37.804;2023-12-22T02:33:54;-2.08;118.99
75296;DHT22;64623;44.738;37.804;2023-12-22T02:34:59;-2.12;118.99
75296;DHT22;64623;44.738;37.804;2023-12-22T02:36:06;-2.15;118.99
75296;DHT22;64623;44.738;37.804;2023-12-22T02:37:12;-2.17;118.99
75296;DHT22;64623;44.738;37.804;2023-12-22T02:38:16;-2.15;118.99
75296;DHT22;64623;44.738;37.804;2023-12-22T02:39:20;-2.24;118.99
75296;DHT22;64623;44.738;37.804;2023-12-22T02:40:24;-2.28;118.99
75296;DHT22;64623;44.738;37.804;2023-12-22T02:41:28;-2.26;118.99
75296;DHT22;64623;44.738;37.804;2023-12-22T02:42:32;-2.29;118.99
75296;DHT22;64623;44.738;37.804;2023-12-22T02:43:37;-2.31;118.99
75296;DHT22;64623;44.738;37.804;2023-12-22T02:44:40;-2.37;118.99
75296;DHT22;64623;44.738;37.804;2023-12-22T02:45:44;-2.41;118.99
75296;DHT22;64623;44.738;37.804;2023-12-22T02:46:47;-2.47;118.99
75296;DHT22;64623;44.738;37.804;2023-12-22T02:47:50;-2.46;118.99
75296;DHT22;64623;44.738;37.804;2023-12-22T02:48:53;-2.49;118.99
75296;DHT22;64623;44.738;37.804;2023-12-22T02:49:57;-2.51;118.99
75296;DHT22;64623;44.738;37.804;2023-12-22T02:51:00;-2.51;118.99
75296;DHT22;64623;44.738;37.804;2023-12-22T02:52:03;-2.56;118.99
75296;DHT22;64623;44.738;37.804;2023-12-22T02:53:08;-2.59;118.99
75296;DHT22;64623;44.738;37.804;2023-12-22T02:54:11;-2.58;118.99
75296;DHT22;64623;44.738;37.804;2023-12-22T02:55:14;-2.60;118.99
75296;DHT22;64623;44.738;37.804;2023-12-22T02:56:18;-2.58;118.99
75296;DHT22;64623;44.738;37.804;2023-12-22T02:57:21;-2.56;118.99
75296;DHT22;64623;44.738;37.804;2023-12-22T02:58:24;-2.57;118.99
75296;DHT22;64623;44.738;37.804;2023-12-22T02:59:28;-2.56;118.99
75296;DHT22;64623;44.738;37.804;2023-12-22T03:00:31;-2.53;118.99
75296;DHT22;64623;44.738;37.804;2023-12-22T03:01:34;-2.52;118.99
75296;DHT22;64623;44.738;37.804;2023-12-22T03:02:38;-2.48;118.99
75296;DHT22;64623;44.738;37.804;2023-12-22T03:03:41;-2.51;118.99
75296;DHT22;64623;44.738;37.804;2023-12-22T03:04:44;-2.50;118.99
75296;DHT22;64623;44.738;37.804;2023-12-22T03:05:49;-2.56;118.99
75296;DHT22;64623;44.738;37.804;2023-12-22T03:06:52;-2.52;118.99
75296;DHT22;64623;44.738;37.804;2023-12-22T03:07:55;-2.52;118.99
75296;DHT22;64623;44.738;37.804;2023-12-22T03:08:58;-2.51;118.99
75296;DHT22;64623;44.738;37.804;2023-12-22T03:10:01;-2.49;118.99
75296;DHT22;64623;44.738;37.804;2023-12-22T03:11:05;-2.51;118.99
75296;DHT22;64623;44.738;37.804;2023-12-22T03:12:08;-2.49;118.99
75296;DHT22;64623;44.738;37.804;2023-12-22T03:13:12;-2.51;118.99
75296;DHT22;64623;44.738;37.804;2023-12-22T03:14:15;-2.51;118.99
75296;DHT22;64623;44.738;37.804;2023-12-22T03:15:18;-2.51;118.99
75296;DHT22;64623;44.738;37.804;2023-12-22T03:16:22;-2.51;118.99
75296;DHT22;64623;44.738;37.804;2023-12-22T03:17:25;-2.52;118.99
75296;DHT22;64623;44.738;37.804;2023-12-22T03:18:28;-2.51;118.99
75296;DHT22;64623;44.738;37.804;2023-12-22T03:19:32;-2.56;118.99
75296;DHT22;64623;44.738;37.804;2023-12-22T03:20:35;-2.58;118.99
75296;DHT22;64623;44.738;37.804;2023-12-22T03:21:39;-2.56;118.99
75296;DHT22;64623;44.738;37.804;2023-12-22T03:22:42;-2.60;118.99
75296;DHT22;64623;44.738;37.804;2023-12-22T03:23:45;-2.56;118.99
75296;DHT22;64623;44.738;37.804;2023-12-22T03:24:48;-2.60;118.99
75296;DHT22;64623;44.738;37.804;2023-12-22T03:25:51;-2.60;118.99
75296;DHT22;64623;44.738;37.804;2023-12-22T03:26:55;-2.60;118.99
75296;DHT22;64623;44.738;37.804;2023-12-22T03:27:58;-2.58;118.99
75296;DHT22;64623;44.738;37.804;2023-12-22T03:29:01;-2.58;118.99
75296;DHT22;64623;44.738;37.804;2023-12-22T03:30:05;-2.58;118.99
75296;DHT22;64623;44.738;37.804;2023-12-22T03:31:08;-2.60;118.99
75296;DHT22;64623;44.738;37.804;2023-12-22T03:32:12;-2.58;118.99
75296;DHT22;64623;44.738;37.804;2023-12-22T03:33:15;-2.57;118.99
75296;DHT22;64623;44.738;37.804;2023-12-22T03:34:18;-2.57;118.99
75296;DHT22;64623;44.738;37.804;2023-12-22T03:35:21;-2.59;118.99
75296;DHT22;64623;44.738;37.804;2023-12-22T03:36:24;-2.59;118.99
75296;DHT22;64623;44.738;37.804;2023-12-22T03:37:27;-2.59;118.99
75296;DHT22;64623;44.738;37.804;2023-12-22T03:38:31;-2.57;118.99
75296;DHT22;64623;44.738;37.804;2023-12-22T03:39:34;-2.60;118.99
75296;DHT22;64623;44.738;37.804;2023-12-22T03:40:37;-2.58;118.99
75296;DHT22;64623;44.738;37.804;2023-12-22T03:41:41;-2.57;118.99
75296;DHT22;64623;44.738;37.804;2023-12-22T03:42:44;-2.57;118.99
75296;DHT22;64623;44.738;37.804;2023-12-22T03:43:47;-2.56;118.99
75296;DHT22;64623;44.738;37.804;2023-12-22T03:44:50;-2.54;118.99
75296;DHT22;64623;44.738;37.804;2023-12-22T03:45:54;-2.53;118.99
75296;DHT22;64623;44.738;37.804;2023-12-22T03:46:57;-2.54;118.99
75296;DHT22;64623;44.738;37.804;2023-12-22T03:48:00;-2.57;118.99
75296;DHT22;64623;44.738;37.804;2023-12-22T03:49:03;-2.56;118.99
75296;DHT22;64623;44.738;37.804;2023-12-22T03:50:07;-2.51;118.99
75296;DHT22;64623;44.738;37.804;2023-12-22T03:51:11;-2.51;118.99
75296;DHT22;64623;44.738;37.804;2023-12-22T03:52:16;-2.54;118.99
75296;DHT22;64623;44.738;37.804;2023-12-22T03:53:19;-2.54;118.99
75296;DHT22;64623;44.738;37.804;2023-12-22T03:54:22;-2.56;118.99
75296;DHT22;64623;44.738;37.804;2023-12-22T03:55:26;-2.56;118.99
75296;DHT22;64623;44.738;37.804;2023-12-22T03:56:30;-2.54;118.99
75296;DHT22;64623;44.738;37.804;2023-12-22T03:57:34;-2.51;118.99
75296;DHT22;64623;44.738;37.804;2023-12-22T03:58:37;-2.51;118.99
75296;DHT22;64623;44.738;37.804;2023-12-22T03:59:41;-2.51;118.99
75296;DHT22;64623;44.738;37.804;2023-12-22T04:00:46;-2.53;118.99
75296;DHT22;64623;44.738;37.804;2023-12-22T04:01:53;-2.52;118.99
75296;DHT22;64623;44.738;37.804;2023-12-22T04:02:58;-2.52;118.99
75296;DHT22;64623;44.738;37.804;2023-12-22T04:04:01;-2.52;118.99
75296;DHT22;64623;44.738;37.804;2023-12-22T04:05:05;-2.49;118.99
75296;DHT22;64623;44.738;37.804;2023-12-22T04:06:09;-2.51;118.99
75296;DHT22;64623;44.738;37.804;2023-12-22T04:07:12;-2.49;118.99
75296;DHT22;64623;44.738;37.804;2023-12-22T04:08:16;-2.50;118.99
75296;DHT22;64623;44.738;37.804;2023-12-22T04:09:19;-2.49;118.99
75296;DHT22;64623;44.738;37.804;2023-12-22T04:10:22;-2.47;118.99
75296;DHT22;64623;44.738;37.804;2023-12-22T04:11:25;-2.46;118.99
75296;DHT22;64623;44.738;37.804;2023-12-22T04:12:29;-2.48;118.99
75296;DHT22;64623;44.738;37.804;2023-12-22T04:13:32;-2.48;118.99
75296;DHT22;64623;44.738;37.804;2023-12-22T04:14:36;-2.48;118.99
75296;DHT22;64623;44.738;37.804;2023-12-22T04:15:39;-2.49;118.99
75296;DHT22;64623;44.738;37.804;2023-12-22T04:16:42;-2.48;118.99
75296;DHT22;64623;44.738;37.804;2023-12-22T04:17:46;-2.48;118.99
75296;DHT22;64623;44.738;37.804;2023-12-22T04:18:49;-2.44;118.99
75296;DHT22;64623;44.738;37.804;2023-12-22T04:19:52;-2.41;118.99
75296;DHT22;64623;44.738;37.804;2023-12-22T04:20:55;-2.39;118.99
75296;DHT22;64623;44.738;37.804;2023-12-22T04:21:58;-2.35;118.99
75296;DHT22;64623;44.738;37.804;2023-12-22T04:23:01;-2.36;118.99
75296;DHT22;64623;44.738;37.804;2023-12-22T04:24:05;-2.35;118.99
75296;DHT22;64623;44.738;37.804;2023-12-22T04:25:08;-2.34;118.99
75296;DHT22;64623;44.738;37.804;2023-12-22T04:26:11;-2.32;118.99
75296;DHT22;64623;44.738;37.804;2023-12-22T04:27:15;-2.31;118.99
75296;DHT22;64623;44.738;37.804;2023-12-22T04:28:18;-2.28;118.99
75296;DHT22;64623;44.738;37.804;2023-12-22T04:29:21;-2.27;118.99
75296;DHT22;64623;44.738;37.804;2023-12-22T04:30:24;-2.22;118.99
75296;DHT22;64623;44.738;37.804;2023-12-22T04:31:29;-2.24;118.99
75296;DHT22;64623;44.738;37.804;2023-12-22T04:32:32;-2.23;118.99
75296;DHT22;64623;44.738;37.804;2023-12-22T04:33:35;-2.26;118.99
75296;DHT22;64623;44.738;37.804;2023-12-22T04:34:38;-2.22;118.99
75296;DHT22;64623;44.738;37.804;2023-12-22T04:35:41;-2.21;118.99
75296;DHT22;64623;44.738;37.804;2023-12-22T04:36:44;-2.19;118.99
75296;DHT22;64623;44.738;37.804;2023-12-22T04:37:47;-2.20;118.99
75296;DHT22;64623;44.738;37.804;2023-12-22T04:38:50;-2.21;118.99
75296;DHT22;64623;44.738;37.804;2023-12-22T04:39:53;-2.22;118.99
75296;DHT22;64623;44.738;37.804;2023-12-22T04:40:56;-2.26;118.99
75296;DHT22;64623;44.738;37.804;2023-12-22T04:41:59;-2.26;118.99
75296;DHT22;64623;44.738;37.804;2023-12-22T04:43:02;-2.26;118.99
75296;DHT22;64623;44.738;37.804;2023-12-22T04:44:05;-2.27;118.99
75296;DHT22;64623;44.738;37.804;2023-12-22T04:45:09;-2.28;118.99
75296;DHT22;64623;44.738;37.804;2023-12-22T04:46:12;-2.27;118.99
75296;DHT22;64623;44.738;37.804;2023-12-22T04:47:15;-2.29;118.99
75296;DHT22;64623;44.738;37.804;2023-12-22T04:48:18;-2.29;118.99
75296;DHT22;64623;44.738;37.804;2023-12-22T04:49:21;-2.28;118.99
75296;DHT22;64623;44.738;37.804;2023-12-22T04:50:24;-2.29;118.99
75296;DHT22;64623;44.738;37.804;2023-12-22T04:51:27;-2.30;118.99
75296;DHT22;64623;44.738;37.804;2023-12-22T04:52:30;-2.30;118.99
75296;DHT22;64623;44.738;37.804;2023-12-22T04:53:33;-2.31;118.99
75296;DHT22;64623;44.738;37.804;2023-12-22T04:54:37;-2.33;118.99
75296;DHT22;64623;44.738;37.804;2023-12-22T04:55:40;-2.32;118.99
75296;DHT22;64623;44.738;37.804;2023-12-22T04:56:43;-2.27;118.99
75296;DHT22;64623;44.738;37.804;2023-12-22T04:57:46;-2.28;118.99
75296;DHT22;64623;44.738;37.804;2023-12-22T04:58:49;-2.26;118.99
75296;DHT22;64623;44.738;37.804;2023-12-22T04:59:52;-2.22;118.99
75296;DHT22;64623;44.738;37.804;2023-12-22T05:00:56;-2.24;118.99
75296;DHT22;64623;44.738;37.804;2023-12-22T05:01:59;-2.24;118.99
75296;DHT22;64623;44.738;37.804;2023-12-22T05:03:02;-2.21;118.99
75296;DHT22;64623;44.738;37.804;2023-12-22T05:04:06;-2.23;118.99
75296;DHT22;64623;44.738;37.804;2023-12-22T05:05:10;-2.27;118.99
75296;DHT22;64623;44.738;37.804;2023-12-22T05:06:14;-2.26;118.99
75296;DHT22;64623;44.738;37.804;2023-12-22T05:07:17;-2.23;118.99
75296;DHT22;64623;44.738;37.804;2023-12-22T05:08:20;-2.22;118.99
75296;DHT22;64623;44.738;37.804;2023-12-22T05:09:23;-2.22;118.99
75296;DHT22;64623;44.738;37.804;2023-12-22T05:10:28;-2.23;118.99
75296;DHT22;64623;44.738;37.804;2023-12-22T05:11:31;-2.24;118.99
75296;DHT22;64623;44.738;37.804;2023-12-22T05:12:34;-2.22;118.99
75296;DHT22;64623;44.738;37.804;2023-12-22T05:13:37;-2.22;118.99
75296;DHT22;64623;44.738;37.804;2023-12-22T05:14:40;-2.19;118.99
75296;DHT22;64623;44.738;37.804;2023-12-22T05:15:43;-2.19;118.99
75296;DHT22;64623;44.738;37.804;2023-12-22T05:16:48;-2.21;118.99
75296;DHT22;64623;44.738;37.804;2023-12-22T05:17:51;-2.22;118.99
75296;DHT22;64623;44.738;37.804;2023-12-22T05:18:54;-2.21;118.99
75296;DHT22;64623;44.738;37.804;2023-12-22T05:19:57;-2.22;118.99
75296;DHT22;64623;44.738;37.804;2023-12-22T05:21:00;-2.21;118.99
75296;DHT22;64623;44.738;37.804;2023-12-22T05:22:03;-2.21;118.99
75296;DHT22;64623;44.738;37.804;2023-12-22T05:23:06;-2.23;118.99
75296;DHT22;64623;44.738;37.804;2023-12-22T05:24:09;-2.19;118.99
75296;DHT22;64623;44.738;37.804;2023-12-22T05:25:13;-2.17;118.99
75296;DHT22;64623;44.738;37.804;2023-12-22T05:26:17;-2.21;118.99
75296;DHT22;64623;44.738;37.804;2023-12-22T05:27:21;-2.22;118.99
75296;DHT22;64623;44.738;37.804;2023-12-22T05:28:24;-2.21;118.99
75296;DHT22;64623;44.738;37.804;2023-12-22T05:29:27;-2.21;118.99
75296;DHT22;64623;44.738;37.804;2023-12-22T05:30:30;-2.18;118.99
75296;DHT22;64623;44.738;37.804;2023-12-22T05:31:33;-2.19;118.99
75296;DHT22;64623;44.738;37.804;2023-12-22T05:32:37;-2.13;118.99
75296;DHT22;64623;44.738;37.804;2023-12-22T05:33:40;-2.12;118.99
75296;DHT22;64623;44.738;37.804;2023-12-22T05:34:44;-2.10;118.99
75296;DHT22;64623;44.738;37.804;2023-12-22T05:35:47;-2.05;118.99
75296;DHT22;64623;44.738;37.804;2023-12-22T05:36:50;-2.06;118.99
75296;DHT22;64623;44.738;37.804;2023-12-22T05:37:53;-2.03;118.99
75296;DHT22;64623;44.738;37.804;2023-12-22T05:38:56;-2.07;118.99
75296;DHT22;64623;44.738;37.804;2023-12-22T05:40:00;-2.02;118.99
75296;DHT22;64623;44.738;37.804;2023-12-22T05:41:04;-1.93;118.99
75296;DHT22;64623;44.738;37.804;2023-12-22T05:42:11;-1.92;118.99
75296;DHT22;64623;44.738;37.804;2023-12-22T05:43:14;-1.92;118.99
75296;DHT22;64623;44.738;37.804;2023-12-22T05:44:17;-1.89;118.99
75296;DHT22;64623;44.738;37.804;2023-12-22T05:45:20;-1.84;118.99
75296;DHT22;64623;44.738;37.804;2023-12-22T05:46:24;-1.78;118.99
75296;DHT22;64623;44.738;37.804;2023-12-22T05:47:27;-1.77;118.99
75296;DHT22;64623;44.738;37.804;2023-12-22T05:48:30;-1.73;118.99
75296;DHT22;64623;44.738;37.804;2023-12-22T05:49:33;-1.58;118.99
75296;DHT22;64623;44.738;37.804;2023-12-22T05:50:37;-1.52;118.99
75296;DHT22;64623;44.738;37.804;2023-12-22T05:51:40;-1.42;118.99
75296;DHT22;64623;44.738;37.804;2023-12-22T05:52:43;-1.26;118.99
75296;DHT22;64623;44.738;37.804;2023-12-22T05:53:47;-1.13;118.99
75296;DHT22;64623;44.738;37.804;2023-12-22T05:54:50;-1.00;118.99
75296;DHT22;64623;44.738;37.804;2023-12-22T05:55:53;-1.02;118.99
75296;DHT22;64623;44.738;37.804;2023-12-22T05:56:56;-1.10;118.99
75296;DHT22;64623;44.738;37.804;2023-12-22T05:58:00;-1.06;118.99
75296;DHT22;64623;44.738;37.804;2023-12-22T05:59:03;-1.08;118.99
75296;DHT22;64623;44.738;37.804;2023-12-22T06:00:07;-1.09;118.99
75296;DHT22;64623;44.738;37.804;2023-12-22T06:01:16;-1.09;118.99
75296;DHT22;64623;44.738;37.804;2023-12-22T06:02:21;-1.09;118.99
75296;DHT22;64623;44.738;37.804;2023-12-22T06:03:24;-1.12;118.99
75296;DHT22;64623;44.738;37.804;2023-12-22T06:04:27;-1.12;118.99
75296;DHT22;64623;44.738;37.804;2023-12-22T06:05:30;-1.18;118.99
75296;DHT22;64623;44.738;37.804;2023-12-22T06:06:33;-1.28;118.99
75296;DHT22;64623;44.738;37.804;2023-12-22T06:07:36;-1.32;118.99
75296;DHT22;64623;44.738;37.804;2023-12-22T06:08:39;-1.35;118.99
75296;DHT22;64623;44.738;37.804;2023-12-22T06:09:43;-1.42;118.99
75296;DHT22;64623;44.738;37.804;2023-12-22T06:10:46;-1.43;118.99
75296;DHT22;64623;44.738;37.804;2023-12-22T06:11:49;-1.41;118.99
75296;DHT22;64623;44.738;37.804;2023-12-22T06:12:52;-1.34;118.99
75296;DHT22;64623;44.738;37.804;2023-12-22T06:13:55;-1.34;118.99
75296;DHT22;64623;44.738;37.804;2023-12-22T06:14:58;-1.32;118.99
75296;DHT22;64623;44.738;37.804;2023-12-22T06:16:01;-1.28;118.99
75296;DHT22;64623;44.738;37.804;2023-12-22T06:17:04;-1.18;118.99
75296;DHT22;64623;44.738;37.804;2023-12-22T06:18:07;-1.05;118.99
75296;DHT22;64623;44.738;37.804;2023-12-22T06:19:10;-0.96;118.99
75296;DHT22;64623;44.738;37.804;2023-12-22T06:20:15;-0.87;118.99
75296;DHT22;64623;44.738;37.804;2023-12-22T06:21:18;-0.84;118.99
75296;DHT22;64623;44.738;37.804;2023-12-22T06:22:22;-0.72;118.99
75296;DHT22;64623;44.738;37.804;2023-12-22T06:23:25;-0.60;118.99
75296;DHT22;64623;44.738;37.804;2023-12-22T06:24:28;-0.52;118.99
75296;DHT22;64623;44.738;37.804;2023-12-22T06:25:31;-0.56;118.99
75296;DHT22;64623;44.738;37.804;2023-12-22T06:26:35;-0.59;118.99
75296;DHT22;64623;44.738;37.804;2023-12-22T06:27:38;-0.55;118.99
75296;DHT22;64623;44.738;37.804;2023-12-22T06:28:41;-0.56;118.99
75296;DHT22;64623;44.738;37.804;2023-12-22T06:29:44;-0.53;118.99
75296;DHT22;64623;44.738;37.804;2023-12-22T06:30:47;-0.50;118.99
75296;DHT22;64623;44.738;37.804;2023-12-22T06:31:50;-0.50;118.99